Jacksonville, FL (32257)

3:22 AM EDT on September 26, 2016 (GMT -0400)
Spanish Wells | | Change Station

Elev 26 ft 30.21 °N, 81.61 °W | Updated 7 seconds ago

Mostly Cloudy
Mostly Cloudy
74.4 °F
Feels Like 73 °F
N
0.0
Wind Variable Wind from NW

Today
High -- | Low -- °F
--% Chance of Precip.
Yesterday
High -- | Low -- °F
Precip. -- in
Pressure 29.98 in
Visibility 10.0 miles
Clouds Scattered Clouds 2000 ft
Mostly Cloudy 25000 ft
Heat Index 73 °F
Dew Point 71 °F
Humidity 90%
Rainfall 0.00 in
Snow Depth Not available.
7:17 AM 7:17 PM
Waning Crescent, 21% visible
METAR KNIP 260653Z 34008KT 10SM SCT020 BKN250 27/23 A2999 RMK AO2 SLP150 OCNL LTGICCC DSNT NE CB DSNT NE T2 SET T02670233
Pressure 29.98 in
Visibility 10.0 miles
Clouds Scattered Clouds 2000 ft
Mostly Cloudy 25000 ft
Heat Index 73 °F
Dew Point 71 °F
Humidity 90%
Rainfall 0.00 in
Snow Depth Not available.
7:17 AM 7:17 PM
Waning Crescent, 21% visible
METAR KNIP 260653Z 34008KT 10SM SCT020 BKN250 27/23 A2999 RMK AO2 SLP150 OCNL LTGICCC DSNT NE CB DSNT NE T2 SET T02670233

10-Day Weather Forecast

Almanac

Astronomy

Sep. 26, 2016 Rise Set
Actual Time
Civil Twilight
Nautical Twilight
Astronomical Twilight
Moon
Length of Visible Light
Length of Day
Tomorrow will be .
, % of the Moon is Illuminated

Today's Extremes

State Highs State Lows

Community

WunderPhotos

Upload Photos

1,941,853 photos uploaded!

WunderBlog® & News

Nearby

Air Quality

  Air Quality AQ Index Pollutant
Not available.

Snow Depth

Station Depth Elevation

Earthquake Activity

City Distance Mag. Time & Date
Minimum magnitude displayed is 2.5.

Coastal Water Temperatures

Place Temperature

Stations

Nearby Weather Stations

Station Location Temp. Windchill Dew Point Humidity Wind Precip. Elev Updated Type
                   

Watches & Warnings

There are currently no watches in effect.